Time;durP1;ratioP1;P1;durP2;ratioP2;P2;SDS_P1;SDS_P2;PMS_P1;PMS_P2;Temp;Humidity;BMP_temperature;BMP_pressure;BME280_temperature;BME280_humidity;BME280_pressure;Samples;Min_cycle;Max_cycle;Signal;HPM_P1;HPM_P2
2022/07/11 00:04:51;;;;;;;4.00;2.10;;;;;;;12.31;75.89;98842.65;220482;1278;22562;-72
2022/07/11 00:09:54;;;;;;;3.90;2.10;;;;;;;12.24;76.29;98845.95;220198;1278;22550;-73
2022/07/11 00:14:56;;;;;;;3.90;2.10;;;;;;;12.16;76.38;98840.61;217589;1277;3514615;-73
2022/07/11 00:19:59;;;;;;;5.00;2.90;;;;;;;12.19;76.30;98837.25;220146;1278;22584;-73
2022/07/11 00:25:34;;;;;;;3.60;2.10;;;;;;;12.32;76.22;98838.38;220234;1278;25341;-71
2022/07/11 00:30:38;;;;;;;2.40;1.90;;;;;;;12.25;76.61;98837.81;220437;1278;24387;-73
2022/07/11 00:35:40;;;;;;;2.80;1.90;;;;;;;12.22;76.82;98840.95;220264;1278;23094;-73
2022/07/11 00:40:42;;;;;;;5.60;2.00;;;;;;;12.20;76.91;98841.31;220439;1278;26492;-72
2022/07/11 00:45:48;;;;;;;3.30;1.90;;;;;;;12.15;77.09;98837.15;220198;1281;22597;-73
2022/07/11 00:50:50;;;;;;;3.00;2.10;;;;;;;12.15;77.45;98834.40;220306;1280;25266;-72
2022/07/11 00:55:53;;;;;;;2.70;2.00;;;;;;;12.20;77.45;98837.17;220262;1277;22574;-72
2022/07/11 01:00:57;;;;;;;4.60;1.90;;;;;;;12.24;77.63;98840.48;220162;1278;22535;-73
2022/07/11 01:06:00;;;;;;;2.90;2.00;;;;;;;12.23;77.50;98837.70;220077;1278;25206;-71
2022/07/11 01:11:03;;;;;;;4.60;2.00;;;;;;;12.22;77.61;98836.21;220222;1278;22532;-73
2022/07/11 01:16:17;;;;;;;3.20;2.30;;;;;;;12.24;77.73;98834.80;219875;1278;22563;-73
2022/07/11 01:21:38;;;;;;;3.70;2.00;;;;;;;12.24;77.74;98838.92;220248;1278;22493;-73
2022/07/11 01:26:43;;;;;;;2.10;1.60;;;;;;;12.24;77.62;98836.13;220138;1278;26396;-72
2022/07/11 01:31:48;;;;;;;3.60;1.80;;;;;;;12.27;77.74;98833.38;220090;1278;25262;-73
2022/07/11 01:37:05;;;;;;;3.70;2.30;;;;;;;12.27;77.84;98832.46;220209;1277;25264;-73
2022/07/11 01:42:08;;;;;;;3.80;2.40;;;;;;;12.26;77.83;98831.56;220027;1278;25322;-73
2022/07/11 01:47:11;;;;;;;4.40;2.70;;;;;;;12.25;78.09;98823.31;219997;1278;25264;-74
2022/07/11 01:52:14;;;;;;;6.40;2.70;;;;;;;12.23;78.12;98817.61;219991;1277;22556;-73
2022/07/11 01:57:16;;;;;;;6.00;3.00;;;;;;;12.23;78.24;98813.90;220240;1277;22690;-73
2022/07/11 02:02:32;;;;;;;5.50;2.50;;;;;;;12.22;78.07;98809.67;220328;1278;22666;-73
2022/07/11 02:12:58;;;;;;;4.60;2.70;;;;;;;12.17;78.25;98802.36;220141;1277;25403;-73
2022/07/11 02:18:12;;;;;;;5.60;2.20;;;;;;;12.14;78.29;98801.55;220014;1277;23804;-72
2022/07/11 02:23:17;;;;;;;3.90;2.40;;;;;;;12.11;78.36;98801.35;220087;1278;25260;-73
2022/07/11 02:28:42;;;;;;;;;;;;;;;;;;;;;
2022/07/11 02:33:44;;;;;;;5.90;2.40;;;;;;;12.09;78.46;98807.30;220018;1277;22645;-72
2022/07/11 02:38:48;;;;;;;5.00;2.60;;;;;;;12.09;78.51;98812.44;220139;1278;25950;-73
2022/07/11 02:43:50;;;;;;;5.70;2.70;;;;;;;12.08;78.49;98810.89;219879;1277;25380;-73
2022/07/11 02:48:53;;;;;;;4.80;2.80;;;;;;;12.08;78.53;98812.90;220135;1278;25364;-72
2022/07/11 02:53:56;;;;;;;8.80;2.60;;;;;;;12.09;78.53;98812.23;219899;1276;23816;-72
2022/07/11 02:58:58;;;;;;;8.00;2.70;;;;;;;12.11;78.61;98818.14;220176;1278;24109;-73
2022/07/11 03:04:15;;;;;;;4.30;2.70;;;;;;;12.13;78.53;98826.23;220087;1276;25324;-72
2022/07/11 03:09:17;;;;;;;7.40;4.00;;;;;;;12.14;78.61;98828.41;220260;1278;22654;-73
2022/07/11 03:14:20;;;;;;;6.20;3.00;;;;;;;12.16;78.46;98823.86;220296;1278;24230;-74
2022/07/11 03:19:22;;;;;;;6.00;2.80;;;;;;;12.19;78.40;98825.22;220258;1278;22579;-73
2022/07/11 03:24:24;;;;;;;5.20;3.10;;;;;;;12.21;78.43;98823.58;220226;1276;22562;-73
2022/07/11 03:29:26;;;;;;;5.70;2.80;;;;;;;12.22;78.43;98821.06;220140;1277;22610;-72
2022/07/11 03:34:29;;;;;;;10.30;3.10;;;;;;;12.22;78.34;98827.52;220061;1276;22731;-72
2022/07/11 03:39:31;;;;;;;6.40;3.30;;;;;;;12.21;78.55;98831.89;220241;1278;22565;-73
2022/07/11 03:44:33;;;;;;;5.30;3.00;;;;;;;12.18;78.99;98833.33;220390;1277;23758;-72
2022/07/11 03:49:41;;;;;;;5.10;2.80;;;;;;;12.16;78.98;98833.20;220232;1276;22502;-73
2022/07/11 03:54:45;;;;;;;3.60;2.50;;;;;;;12.22;79.15;98830.47;220247;1277;22563;-73
2022/07/11 03:59:47;;;;;;;4.30;2.20;;;;;;;12.32;79.06;98833.88;220184;1276;22568;-73
2022/07/11 04:04:49;;;;;;;3.40;2.20;;;;;;;12.39;78.94;98836.21;220096;1279;23337;-73
2022/07/11 04:09:58;;;;;;;3.30;2.10;;;;;;;12.41;78.96;98832.95;220340;1276;23064;-73
2022/07/11 04:15:22;;;;;;;5.10;2.20;;;;;;;12.46;78.92;98837.64;220369;1276;24296;-73
2022/07/11 04:20:35;;;;;;;8.20;2.10;;;;;;;12.52;78.87;98828.70;220064;1276;22544;-72
2022/07/11 04:25:40;;;;;;;4.30;2.50;;;;;;;12.57;78.96;98834.20;220284;1276;23034;-73
2022/07/11 04:30:43;;;;;;;4.20;2.00;;;;;;;12.62;78.87;98831.03;220168;1276;22477;-73
2022/07/11 04:36:05;;;;;;;3.10;2.20;;;;;;;12.66;78.95;98835.73;220181;1276;22572;-72
2022/07/11 04:41:11;;;;;;;3.50;1.80;;;;;;;12.75;79.00;98837.98;220162;1277;23215;-72
2022/07/11 04:46:24;;;;;;;3.70;2.40;;;;;;;12.82;78.89;98842.39;220272;1276;25361;-69
2022/07/11 04:51:32;;;;;;;3.10;2.10;;;;;;;12.92;78.66;98845.20;220201;1276;22550;-73
2022/07/11 04:56:34;;;;;;;4.00;2.00;;;;;;;13.10;78.49;98845.64;220185;1276;22504;-73
2022/07/11 05:01:37;;;;;;;2.90;1.80;;;;;;;13.27;77.87;98843.77;220116;1276;22568;-73
2022/07/11 05:06:42;;;;;;;5.00;2.10;;;;;;;13.41;77.47;98848.81;220137;1277;22562;-74
2022/07/11 05:11:45;;;;;;;3.50;1.90;;;;;;;13.59;77.08;98851.86;220219;1276;22574;-73
2022/07/11 05:16:48;;;;;;;4.90;2.00;;;;;;;13.83;76.76;98852.77;220305;1276;22606;-73
2022/07/11 05:22:03;;;;;;;3.00;1.60;;;;;;;14.11;76.36;98858.55;220131;1277;22560;-73
2022/07/11 05:27:21;;;;;;;2.50;1.70;;;;;;;14.39;75.25;98859.45;219998;1277;25421;-72
2022/07/11 05:32:26;;;;;;;4.20;2.40;;;;;;;14.61;74.71;98867.86;220390;1276;22555;-73
2022/07/11 05:37:37;;;;;;;4.20;2.30;;;;;;;14.60;73.26;98866.59;220199;1276;22712;-73
2022/07/11 05:42:40;;;;;;;4.90;2.00;;;;;;;14.47;73.00;98871.83;220029;1276;22608;-72
2022/07/11 05:47:56;;;;;;;4.70;2.00;;;;;;;14.38;72.76;98870.84;220395;1276;22703;-72
2022/07/11 05:53:14;;;;;;;5.50;2.30;;;;;;;14.34;72.72;98869.52;220522;1276;22538;-71
2022/07/11 05:58:28;;;;;;;5.60;2.00;;;;;;;14.36;72.15;98869.83;220455;1276;22560;-71
2022/07/11 06:03:33;;;;;;;4.00;1.90;;;;;;;14.50;72.22;98869.51;220505;1276;22538;-72
2022/07/11 06:09:21;;;;;;;4.00;1.50;;;;;;;14.72;71.78;98872.65;220560;1276;23090;-72
2022/07/11 06:14:07;;;;;;;2.60;1.50;;;;;;;14.95;71.17;98871.92;220497;1276;22501;-71
2022/07/11 06:19:09;;;;;;;3.20;1.50;;;;;;;15.16;70.47;98877.99;220604;1276;22493;-71
2022/07/11 06:24:14;;;;;;;3.00;1.70;;;;;;;15.39;69.82;98878.64;220834;1276;26224;-71
2022/07/11 06:29:19;;;;;;;4.60;1.60;;;;;;;15.70;69.42;98878.91;220674;1276;22503;-72
2022/07/11 06:34:21;;;;;;;4.60;1.70;;;;;;;16.14;68.99;98869.97;220678;1276;22477;-72
2022/07/11 06:39:24;;;;;;;3.40;1.10;;;;;;;16.62;67.64;98870.27;220613;1276;25415;-71
2022/07/11 06:44:26;;;;;;;3.40;1.20;;;;;;;16.91;65.78;98867.38;220585;1276;25457;-72
2022/07/11 06:49:29;;;;;;;2.80;1.10;;;;;;;17.10;64.65;98870.73;220676;1276;25475;-71
2022/07/11 06:54:32;;;;;;;2.00;1.10;;;;;;;17.43;64.34;98872.87;220671;1276;25153;-71
2022/07/11 06:59:37;;;;;;;4.80;1.20;;;;;;;17.86;62.83;98877.65;220711;1276;22630;-74
2022/07/11 07:04:40;;;;;;;2.00;1.00;;;;;;;18.13;61.81;98880.41;220386;1277;24406;-71
2022/07/11 07:09:50;;;;;;;1.90;1.00;;;;;;;18.33;60.37;98891.08;220475;1276;23298;-71
2022/07/11 07:14:52;;;;;;;3.30;1.30;;;;;;;18.29;59.40;98896.98;220672;1276;25254;-70
2022/07/11 07:19:55;;;;;;;3.20;1.20;;;;;;;18.21;58.94;98898.84;220385;1276;22607;-71
2022/07/11 07:24:57;;;;;;;3.30;1.70;;;;;;;18.11;59.07;98898.94;220431;1276;25499;-71
2022/07/11 07:30:00;;;;;;;5.00;1.70;;;;;;;18.30;59.35;98903.92;220371;1276;22581;-71
2022/07/11 07:35:11;;;;;;;5.20;1.40;;;;;;;18.45;58.36;98905.51;220535;1276;25281;-71
2022/07/11 07:40:17;;;;;;;2.80;1.20;;;;;;;18.28;57.51;98902.77;220678;1276;24471;-71
2022/07/11 07:45:23;;;;;;;3.40;1.40;;;;;;;18.12;57.72;98898.36;220361;1276;25255;-72
2022/07/11 07:50:29;;;;;;;2.80;1.00;;;;;;;18.13;57.48;98898.56;220282;1276;22560;-71
2022/07/11 07:55:32;;;;;;;2.10;0.90;;;;;;;17.96;56.76;98899.53;220545;1276;22569;-71
2022/07/11 08:05:58;;;;;;;3.10;1.20;;;;;;;18.05;57.33;98889.09;220326;1276;24236;-72
2022/07/11 08:11:02;;;;;;;3.40;0.90;;;;;;;18.28;56.99;98890.30;220468;1276;22564;-72
2022/07/11 08:16:24;;;;;;;1.70;0.70;;;;;;;18.43;55.67;98888.46;220484;1276;22563;-72
2022/07/11 08:21:43;;;;;;;3.30;0.70;;;;;;;18.65;55.14;98877.58;220516;1276;22732;-71
2022/07/11 08:26:46;;;;;;;2.50;0.80;;;;;;;18.71;52.25;98872.15;220364;1276;25448;-71
2022/07/11 08:31:48;;;;;;;3.60;1.20;;;;;;;18.72;52.39;98856.35;220320;1276;26415;-72
2022/07/11 08:36:51;;;;;;;1.80;1.00;;;;;;;18.88;53.35;98847.25;220473;1276;22568;-72
2022/07/11 08:41:54;;;;;;;1.70;0.70;;;;;;;19.08;52.26;98847.90;220253;1276;22570;-74
2022/07/11 08:46:58;;;;;;;2.60;1.00;;;;;;;18.92;51.89;98847.63;220381;1276;22572;-72
2022/07/11 08:52:12;;;;;;;3.10;1.20;;;;;;;19.17;51.88;98844.30;220468;1276;22543;-72
2022/07/11 08:57:23;;;;;;;2.70;1.80;;;;;;;19.36;51.65;98845.45;220372;1276;22714;-73
2022/07/11 09:02:28;;;;;;;4.50;1.30;;;;;;;19.43;51.56;98831.83;220435;1276;25262;-71
2022/07/11 09:07:32;;;;;;;4.00;1.40;;;;;;;19.61;50.66;98829.14;220377;1276;22724;-71
2022/07/11 09:13:10;;;;;;;3.40;1.30;;;;;;;19.90;50.62;98824.01;220329;1276;22608;-71
2022/07/11 09:18:25;;;;;;;2.50;0.70;;;;;;;20.19;49.50;98817.20;220364;1276;25421;-72
2022/07/11 09:29:07;;;;;;;3.70;1.00;;;;;;;20.07;48.27;98822.73;220578;1276;22681;-75
2022/07/11 09:34:11;;;;;;;2.10;1.10;;;;;;;20.19;48.80;98820.39;220792;1276;22542;-75
2022/07/11 09:39:21;;;;;;;1.80;0.70;;;;;;;20.56;47.67;98815.95;220508;1276;24244;-74
2022/07/11 09:44:28;;;;;;;1.20;0.80;;;;;;;20.40;46.35;98816.14;220830;1276;24215;-74
2022/07/11 09:49:39;;;;;;;2.50;0.60;;;;;;;19.83;46.45;98820.77;220552;1276;24204;-74
2022/07/11 09:55:02;;;;;;;0.80;0.80;;;;;;;19.09;46.90;98832.34;220556;1276;22722;-75
2022/07/11 10:00:05;;;;;;;7.50;1.20;;;;;;;18.52;48.38;98849.07;220580;1276;24258;-73
2022/07/11 10:05:08;;;;;;;1.10;0.60;;;;;;;17.73;50.46;98867.92;220747;1276;22550;-72
2022/07/11 10:10:11;;;;;;;2.40;0.60;;;;;;;16.98;52.39;98872.27;220435;1276;22553;-73
2022/07/11 10:15:37;;;;;;;0.80;0.50;;;;;;;16.66;53.96;98881.92;220611;1276;22560;-73
2022/07/11 10:21:06;;;;;;;;;;;;;;;16.60;55.36;98887.42;220545;1276;25362;-73
2022/07/11 10:26:40;;;;;;;1.10;0.60;;;;;;;16.83;56.14;98881.61;220660;1276;22544;-72
2022/07/11 10:31:46;;;;;;;1.70;0.80;;;;;;;17.29;55.85;98871.83;220602;1276;22583;-73
2022/07/11 10:37:10;;;;;;;7.10;0.40;;;;;;;17.62;54.85;98860.70;220755;1276;22547;-73
2022/07/11 10:42:39;;;;;;;0.90;0.60;;;;;;;17.86;53.76;98853.63;220567;1276;22563;-73
2022/07/11 10:47:44;;;;;;;1.20;0.60;;;;;;;18.03;52.99;98846.73;220582;1276;22781;-73
2022/07/11 10:53:11;;;;;;;2.80;2.50;;;;;;;18.33;53.15;98838.08;220615;1276;22731;-74
2022/07/11 10:58:41;;;;;;;0.80;0.70;;;;;;;18.79;52.85;98841.69;220853;1276;22566;-73
2022/07/11 11:03:49;;;;;;;0.50;0.50;;;;;;;19.43;52.18;98848.91;220683;1276;22596;-74
2022/07/11 11:08:52;;;;;;;1.00;0.60;;;;;;;19.71;51.08;98863.57;220743;1276;22548;-74
2022/07/11 11:14:37;;;;;;;1.10;0.60;;;;;;;19.26;51.04;98896.14;220445;1276;25479;-73
2022/07/11 11:20:04;;;;;;;1.10;0.50;;;;;;;18.04;54.79;98902.88;220772;1276;22554;-72
2022/07/11 11:25:50;;;;;;;0.60;0.50;;;;;;;16.69;57.38;98876.72;219776;1281;25125;-70
2022/07/11 11:31:14;;;;;;;1.40;0.70;;;;;;;16.20;60.35;98868.77;220071;1281;23319;-73
2022/07/11 11:36:35;;;;;;;0.80;0.50;;;;;;;16.32;61.89;98868.30;220088;1281;25340;-72
2022/07/11 11:41:50;;;;;;;0.80;0.30;;;;;;;16.38;61.85;98882.67;219942;1279;26394;-74
2022/07/11 11:46:59;;;;;;;0.60;0.30;;;;;;;15.98;62.65;98938.66;220202;1281;23236;-73
2022/07/11 11:52:12;;;;;;;0.30;0.20;;;;;;;14.85;64.52;98941.86;220316;1276;24197;-73
2022/07/11 11:57:34;;;;;;;0.40;0.30;;;;;;;13.85;66.37;98935.36;220548;1276;25336;-72
2022/07/11 12:03:00;;;;;;;0.10;0.10;;;;;;;13.70;68.57;98919.89;220617;1276;22604;-72
2022/07/11 12:08:05;;;;;;;0.80;0.30;;;;;;;13.87;69.70;98914.15;220751;1276;22500;-73
2022/07/11 12:13:10;;;;;;;0.60;0.20;;;;;;;14.20;70.48;98907.41;220269;1276;22538;-74
2022/07/11 12:18:13;;;;;;;0.40;0.20;;;;;;;14.54;70.56;98913.86;220067;1276;586799;-74
2022/07/11 12:23:26;;;;;;;0.60;0.30;;;;;;;14.82;70.41;98919.88;220473;1276;24014;-73
2022/07/11 12:28:29;;;;;;;0.30;0.30;;;;;;;15.05;70.05;98925.48;220676;1276;30110;-74
2022/07/11 12:33:50;;;;;;;0.20;0.20;;;;;;;15.39;70.10;98920.27;220804;1276;23367;-73
2022/07/11 12:38:56;;;;;;;;;;;;;;;15.65;69.91;98918.40;220589;1276;24231;-73
2022/07/11 12:50:02;;;;;;;0.70;0.30;;;;;;;15.99;68.61;98920.75;220532;1276;22712;-73
2022/07/11 12:55:08;;;;;;;0.50;0.20;;;;;;;16.03;68.16;98913.80;220772;1276;22566;-73
2022/07/11 13:00:21;;;;;;;0.30;0.30;;;;;;;15.99;67.54;98921.73;220730;1276;23116;-73
2022/07/11 13:05:51;;;;;;;0.20;0.20;;;;;;;15.88;67.31;98915.36;220627;1276;22560;-73
2022/07/11 13:11:05;;;;;;;0.40;0.20;;;;;;;15.96;67.70;98902.27;220817;1276;22564;-73
2022/07/11 13:16:12;;;;;;;1.20;0.90;;;;;;;16.10;66.95;98886.77;221248;1276;25714;-73
2022/07/11 13:21:25;;;;;;;1.00;0.50;;;;;;;16.23;66.93;98886.26;221248;1276;23981;-72
2022/07/11 13:26:30;;;;;;;0.30;0.20;;;;;;;16.49;66.81;98893.41;221262;1276;22677;-73
2022/07/11 13:31:32;;;;;;;0.60;0.50;;;;;;;16.57;66.64;98906.56;220935;1276;22735;-74
2022/07/11 13:36:51;;;;;;;1.40;0.20;;;;;;;16.79;66.70;98906.02;220563;1276;22601;-73
2022/07/11 13:42:16;;;;;;;6.60;6.00;;;;;;;17.16;65.03;98916.59;221013;1276;24235;-72
2022/07/11 13:47:32;;;;;;;0.90;0.50;;;;;;;17.33;64.42;98920.95;221344;1276;24344;-73
2022/07/11 13:52:55;;;;;;;4.50;2.90;;;;;;;17.72;64.08;98916.78;221890;1276;24149;-74
2022/07/11 13:58:00;;;;;;;0.40;0.40;;;;;;;18.01;63.22;98922.54;221498;1276;25419;-73
2022/07/11 14:03:03;;;;;;;2.00;1.60;;;;;;;18.24;62.12;98927.58;220635;1276;22576;-74
2022/07/11 14:08:08;;;;;;;1.00;0.70;;;;;;;18.21;61.33;98925.79;222542;1276;22563;-72
2022/07/11 14:13:11;;;;;;;0.80;0.40;;;;;;;18.08;61.13;98932.01;224935;1276;22474;-72
2022/07/11 14:18:27;;;;;;;0.60;0.60;;;;;;;18.19;61.50;98930.90;224502;1276;22666;-72
2022/07/11 14:23:30;;;;;;;0.40;0.40;;;;;;;18.22;61.40;98928.17;224237;1276;25374;-73
2022/07/11 14:28:33;;;;;;;0.80;0.50;;;;;;;18.29;61.98;98924.48;223735;1276;22573;-74
2022/07/11 14:33:38;;;;;;;0.60;0.60;;;;;;;18.39;61.32;98924.92;223405;1276;22602;-72
2022/07/11 14:38:40;;;;;;;2.70;1.10;;;;;;;18.53;61.18;98928.08;222062;1277;22554;-75
2022/07/11 14:43:43;;;;;;;1.80;1.40;;;;;;;18.83;61.39;98928.20;221857;1279;25367;-73
2022/07/11 14:48:47;;;;;;;1.20;0.90;;;;;;;18.91;60.14;98926.06;221538;1279;22588;-73
2022/07/11 14:53:49;;;;;;;1.70;1.10;;;;;;;18.99;60.55;98917.06;221423;1279;25262;-74
2022/07/11 14:58:51;;;;;;;0.80;0.60;;;;;;;19.14;60.29;98913.34;221193;1279;22700;-73
2022/07/11 15:03:54;;;;;;;0.90;0.60;;;;;;;19.17;59.90;98911.95;221059;1279;23136;-73
2022/07/11 15:14:18;;;;;;;2.10;1.60;;;;;;;19.63;59.80;98909.67;220615;1279;24392;-73
2022/07/11 15:19:21;;;;;;;3.30;1.10;;;;;;;19.94;59.30;98903.64;220325;1279;25264;-73
2022/07/11 15:24:23;;;;;;;1.50;1.10;;;;;;;19.99;58.67;98909.21;220375;1278;22555;-73
2022/07/11 15:29:26;;;;;;;1.20;0.80;;;;;;;19.84;58.51;98911.06;220393;1276;22567;-73
2022/07/11 15:34:35;;;;;;;2.40;1.20;;;;;;;19.39;58.35;98911.43;220413;1279;24233;-73
2022/07/11 15:39:37;;;;;;;2.80;2.20;;;;;;;19.19;59.54;98910.91;220534;1276;22612;-73
2022/07/11 15:44:52;;;;;;;2.00;1.10;;;;;;;19.28;60.05;98910.33;220236;1276;22718;-73
2022/07/11 15:50:07;;;;;;;1.50;0.90;;;;;;;19.51;59.10;98918.31;220360;1276;22549;-74
2022/07/11 15:55:09;;;;;;;1.80;0.80;;;;;;;19.58;58.92;98920.41;220264;1276;22540;-73
2022/07/11 16:00:13;;;;;;;2.50;2.20;;;;;;;19.42;58.63;98926.40;220243;1278;22626;-72
2022/07/11 16:05:15;;;;;;;1.80;1.10;;;;;;;19.27;58.56;98924.21;220236;1279;25271;-74
2022/07/11 16:10:31;;;;;;;6.70;0.70;;;;;;;19.06;58.47;98927.36;220178;1279;24174;-72
2022/07/11 16:15:37;;;;;;;1.00;0.50;;;;;;;18.78;58.33;98932.12;220126;1276;22820;-73
2022/07/11 16:20:40;;;;;;;0.60;0.40;;;;;;;18.68;58.17;98931.50;220272;1276;22553;-73
2022/07/11 16:25:43;;;;;;;1.50;0.60;;;;;;;18.62;58.30;98932.41;220275;1276;22561;-74
2022/07/11 16:30:46;;;;;;;1.20;0.70;;;;;;;18.72;58.83;98933.41;220098;1276;25269;-71
2022/07/11 16:35:48;;;;;;;1.80;0.70;;;;;;;18.71;57.91;98929.27;220398;1278;22559;-73
2022/07/11 16:46:11;;;;;;;1.40;0.70;;;;;;;18.33;59.40;98921.45;220343;1277;24209;-74
2022/07/11 16:51:16;;;;;;;0.60;0.50;;;;;;;18.22;59.94;98926.59;220261;1277;22566;-74
2022/07/11 16:56:19;;;;;;;2.90;0.70;;;;;;;17.99;60.29;98929.92;220609;1276;22742;-74
2022/07/11 17:01:22;;;;;;;2.10;1.20;;;;;;;17.85;60.80;98933.67;220222;1279;22599;-73
2022/07/11 17:06:26;;;;;;;1.30;0.90;;;;;;;17.75;61.04;98944.30;220192;1278;24276;-72
2022/07/11 17:11:30;;;;;;;0.80;0.60;;;;;;;17.63;61.33;98955.88;220196;1279;23780;-74
2022/07/11 17:16:32;;;;;;;1.20;0.90;;;;;;;17.79;62.32;98960.74;220202;1280;22560;-73
2022/07/11 17:21:36;;;;;;;2.00;0.60;;;;;;;19.26;63.83;98967.62;220178;1280;26324;-74
2022/07/11 17:26:39;;;;;;;3.70;3.40;;;;;;;20.73;61.17;98977.09;220364;1278;24231;-75
2022/07/11 17:31:47;;;;;;;1.10;0.80;;;;;;;20.76;58.22;98983.10;220497;1276;22563;-74
2022/07/11 17:36:50;;;;;;;1.30;1.20;;;;;;;20.68;57.37;98985.98;220475;1277;22562;-74
2022/07/11 17:41:54;;;;;;;1.50;0.80;;;;;;;20.34;56.49;98987.77;220458;1276;22574;-74
2022/07/11 17:47:08;;;;;;;0.60;0.50;;;;;;;19.37;57.15;98981.27;220213;1278;22699;-73
2022/07/11 17:52:31;;;;;;;2.30;0.60;;;;;;;18.56;58.14;98978.00;220266;1276;22553;-73
2022/07/11 17:57:34;;;;;;;2.00;1.00;;;;;;;17.89;59.46;98973.20;220313;1276;22535;-74
2022/07/11 18:02:37;;;;;;;1.00;0.60;;;;;;;17.42;60.46;98965.90;220288;1276;24518;-74
2022/07/11 18:07:47;;;;;;;1.90;0.70;;;;;;;16.93;61.41;98964.02;220075;1276;22576;-73
2022/07/11 18:12:50;;;;;;;1.20;0.70;;;;;;;16.50;62.22;98967.21;220318;1276;22878;-74
2022/07/11 18:17:56;;;;;;;0.90;0.80;;;;;;;16.19;63.34;98968.08;220335;1276;22592;-74
2022/07/11 18:23:01;;;;;;;2.00;1.00;;;;;;;15.97;64.36;98972.00;220284;1277;22576;-72
2022/07/11 18:28:13;;;;;;;3.80;1.00;;;;;;;15.72;65.14;98977.44;220341;1277;22573;-73
2022/07/11 18:33:15;;;;;;;1.40;1.10;;;;;;;15.48;66.07;98976.98;220200;1276;25381;-73
2022/07/11 18:38:17;;;;;;;1.40;1.10;;;;;;;15.26;66.76;98977.15;220211;1278;22632;-73
2022/07/11 18:43:19;;;;;;;1.10;1.00;;;;;;;15.04;67.60;98971.86;220337;1277;24207;-74
2022/07/11 18:48:22;;;;;;;2.10;0.90;;;;;;;14.87;68.54;98973.48;220331;1278;24202;-74
2022/07/11 18:53:24;;;;;;;1.40;0.90;;;;;;;14.77;69.17;98975.88;220345;1278;24224;-73
2022/07/11 18:58:27;;;;;;;1.40;0.80;;;;;;;14.63;69.92;98978.45;220410;1281;22769;-75
2022/07/11 19:03:30;;;;;;;4.10;1.60;;;;;;;14.46;70.46;98982.05;220204;1281;22565;-73
2022/07/11 19:08:33;;;;;;;1.70;1.40;;;;;;;14.30;71.77;98979.70;220051;1282;23836;-74
2022/07/11 19:13:36;;;;;;;1.40;1.10;;;;;;;14.16;72.02;98986.79;220224;1278;25261;-74
2022/07/11 19:18:38;;;;;;;2.10;0.80;;;;;;;14.04;72.20;98987.42;220295;1282;23854;-74
2022/07/11 19:24:03;;;;;;;1.80;1.00;;;;;;;13.94;72.77;98988.59;220215;1278;26394;-75
2022/07/11 19:29:20;;;;;;;1.40;1.10;;;;;;;13.81;73.07;98990.35;220344;1278;22567;-74
2022/07/11 19:34:22;;;;;;;1.60;0.90;;;;;;;13.68;73.33;98991.96;220209;1277;24160;-73
2022/07/11 19:39:24;;;;;;;1.10;1.00;;;;;;;13.58;73.98;98989.45;220271;1278;25549;-74
2022/07/11 19:44:28;;;;;;;1.30;1.20;;;;;;;13.49;74.62;98995.63;220312;1278;24206;-74
2022/07/11 19:49:32;;;;;;;1.90;1.10;;;;;;;13.43;75.08;98987.23;220163;1278;22715;-73
2022/07/11 19:59:59;;;;;;;3.50;1.40;;;;;;;13.42;75.78;98984.68;220371;1278;22664;-72
2022/07/11 20:05:06;;;;;;;2.30;1.00;;;;;;;13.42;76.02;98989.84;220199;1278;22746;-74
2022/07/11 20:10:14;;;;;;;1.70;1.00;;;;;;;13.41;76.33;98988.89;220162;1278;25461;-74
2022/07/11 20:15:17;;;;;;;1.70;1.50;;;;;;;13.41;76.50;98990.55;220247;1277;22610;-73
2022/07/11 20:20:19;;;;;;;1.40;1.30;;;;;;;13.40;76.60;98991.05;220096;1278;23732;-74
2022/07/11 20:25:22;;;;;;;3.90;1.40;;;;;;;13.39;76.83;98991.60;220196;1278;22542;-75
2022/07/11 20:30:24;;;;;;;2.30;1.80;;;;;;;13.32;76.94;98993.02;220169;1277;22637;-74
2022/07/11 20:35:27;;;;;;;2.10;1.40;;;;;;;13.27;77.16;98997.06;220113;1278;24295;-74
2022/07/11 20:40:30;;;;;;;1.80;1.30;;;;;;;13.19;77.46;98999.48;220289;1278;22565;-74
2022/07/11 20:45:32;;;;;;;2.00;1.50;;;;;;;13.12;77.56;98993.59;220293;1278;22754;-74
2022/07/11 20:50:34;;;;;;;5.20;1.60;;;;;;;13.08;77.68;98993.14;220246;1277;22523;-73
2022/07/11 20:55:40;;;;;;;3.20;1.70;;;;;;;13.08;77.88;98996.96;220122;1278;22973;-73
2022/07/11 21:00:42;;;;;;;2.40;1.70;;;;;;;13.07;78.00;99004.67;220289;1277;22571;-73
2022/07/11 21:05:45;;;;;;;2.40;1.80;;;;;;;13.04;78.21;99007.20;220182;1278;22543;-74
2022/07/11 21:10:47;;;;;;;2.50;1.30;;;;;;;13.03;78.33;99008.56;220098;1278;24266;-74
2022/07/11 21:15:52;;;;;;;1.90;1.60;;;;;;;13.07;78.51;99005.52;220167;1277;23027;-73
2022/07/11 21:20:55;;;;;;;4.20;1.60;;;;;;;13.13;78.58;99009.29;220040;1276;22681;-74
2022/07/11 21:25:58;;;;;;;2.10;1.60;;;;;;;13.16;78.50;99017.41;220211;1278;24374;-74
2022/07/11 21:31:04;;;;;;;2.50;1.40;;;;;;;13.12;78.37;99015.04;220167;1278;24133;-74
2022/07/11 21:36:07;;;;;;;1.40;1.10;;;;;;;13.03;78.21;99011.52;220158;1277;22671;-74
2022/07/11 21:41:10;;;;;;;2.80;1.50;;;;;;;12.93;78.17;99014.79;220069;1277;22561;-73
2022/07/11 21:46:13;;;;;;;2.30;1.70;;;;;;;12.81;78.36;99016.39;219978;1277;25464;-74
2022/07/11 21:51:18;;;;;;;2.60;1.90;;;;;;;12.71;78.69;99021.41;220168;1276;22541;-74
2022/07/11 21:56:21;;;;;;;3.10;1.90;;;;;;;12.61;78.78;99021.52;220199;1276;23276;-74
2022/07/11 22:01:24;;;;;;;3.00;2.10;;;;;;;12.54;79.00;99017.58;220214;1277;25420;-73
2022/07/11 22:06:29;;;;;;;3.30;1.90;;;;;;;12.48;79.20;99014.23;220110;1276;22620;-74
2022/07/11 22:11:35;;;;;;;2.90;1.80;;;;;;;12.42;79.41;99011.59;220077;1278;22735;-74
2022/07/11 22:16:37;;;;;;;2.60;1.70;;;;;;;12.37;79.38;99013.77;220220;1278;25265;-73
2022/07/11 22:21:43;;;;;;;3.80;2.00;;;;;;;12.32;79.59;99014.27;220294;1278;25545;-74
2022/07/11 22:26:46;;;;;;;1.90;1.80;;;;;;;12.29;79.65;99015.02;220102;1276;22700;-73
2022/07/11 22:31:48;;;;;;;2.20;1.70;;;;;;;12.28;79.88;99018.59;220200;1277;22565;-74
2022/07/11 22:36:50;;;;;;;3.20;2.20;;;;;;;12.30;80.01;99021.81;220157;1276;22587;-73
2022/07/11 22:41:53;;;;;;;4.70;2.20;;;;;;;12.34;80.24;99024.24;220292;1278;22557;-73
2022/07/11 22:46:55;;;;;;;5.70;2.40;;;;;;;12.39;80.35;99021.79;220352;1277;22552;-74
2022/07/11 22:52:17;;;;;;;2.20;2.00;;;;;;;12.43;80.46;99022.59;220326;1276;22540;-74
2022/07/11 22:57:40;;;;;;;3.00;2.20;;;;;;;12.46;80.60;99018.66;220300;1278;22631;-74
2022/07/11 23:02:48;;;;;;;3.00;2.10;;;;;;;12.47;80.50;99026.02;220241;1276;22586;-74
2022/07/11 23:07:52;;;;;;;2.70;2.00;;;;;;;12.43;80.45;99022.11;220248;1278;22577;-74
2022/07/11 23:13:17;;;;;;;2.20;1.90;;;;;;;12.34;80.47;99028.21;220304;1276;22571;-73
2022/07/11 23:18:29;;;;;;;5.50;2.00;;;;;;;12.24;80.43;99026.06;220322;1277;22563;-75
2022/07/11 23:23:32;;;;;;;3.20;2.00;;;;;;;12.14;80.50;99024.08;220288;1276;25468;-74
2022/07/11 23:28:36;;;;;;;3.20;2.20;;;;;;;12.05;80.72;99027.37;220194;1276;23124;-74
2022/07/11 23:33:38;;;;;;;2.00;1.70;;;;;;;11.96;80.94;99024.55;220363;1276;22987;-75
2022/07/11 23:38:46;;;;;;;1.90;1.80;;;;;;;11.90;81.08;99026.53;220139;1276;25303;-73
2022/07/11 23:43:48;;;;;;;4.10;2.00;;;;;;;11.88;81.30;99032.37;220072;1276;25360;-76
2022/07/11 23:48:51;;;;;;;2.80;1.60;;;;;;;11.87;81.63;99026.16;220186;1276;25436;-74
2022/07/11 23:53:55;;;;;;;2.10;1.80;;;;;;;11.86;81.78;99027.73;220188;1277;26076;-73
2022/07/11 23:58:58;;;;;;;3.60;1.90;;;;;;;11.83;81.97;99028.94;220071;1277;25365;-75
